createdAt,value
2023-03-29T00:00:02.022Z,5.8
2023-03-29T00:14:26.834Z,5.8
2023-03-29T00:18:33.020Z,5.8
2023-03-29T00:20:36.095Z,5.8
2023-03-29T00:22:39.200Z,5.7
2023-03-29T00:24:42.302Z,5.7
2023-03-29T00:26:45.388Z,5.8
2023-03-29T00:28:51.681Z,5.7
2023-03-29T00:30:54.812Z,5.8
2023-03-29T00:36:04.173Z,5.7
2023-03-29T00:38:07.279Z,5.8
2023-03-29T00:40:10.299Z,5.8
2023-03-29T00:44:19.694Z,5.8
2023-03-29T00:54:35.151Z,5.9
2023-03-29T01:06:57.018Z,5.8
2023-03-29T01:13:09.460Z,5.9
2023-03-29T01:15:12.535Z,6
2023-03-29T01:23:24.921Z,6
2023-03-29T01:27:34.310Z,6
2023-03-29T01:30:40.566Z,6
2023-03-29T01:32:43.691Z,6.1
2023-03-29T01:34:46.770Z,6.1
2023-03-29T01:36:49.863Z,6.1
2023-03-29T01:40:59.252Z,6.1
2023-03-29T01:43:02.530Z,6.2
2023-03-29T01:45:05.379Z,6.1
2023-03-29T01:47:08.494Z,6.1
2023-03-29T01:49:11.579Z,6.2
2023-03-29T01:51:14.682Z,6.1
2023-03-29T01:53:20.972Z,6.1
2023-03-29T01:55:24.047Z,6.2
2023-03-29T01:57:27.215Z,6.3
2023-03-29T02:07:45.767Z,6.3
2023-03-29T02:13:54.999Z,6.4
2023-03-29T02:15:58.093Z,6.3
2023-03-29T02:18:01.214Z,6.5
2023-03-29T02:20:04.286Z,6.4
2023-03-29T02:22:10.578Z,6.5
2023-03-29T02:24:13.696Z,6.5
2023-03-29T02:26:16.777Z,6.4
2023-03-29T02:34:59.138Z,6.5
2023-03-29T02:37:02.235Z,6.5
2023-03-29T02:39:05.372Z,6.5
2023-03-29T02:41:08.462Z,6.6
2023-03-29T02:43:11.542Z,6.6
2023-03-29T02:45:14.658Z,6.6
2023-03-29T02:47:17.760Z,6.5
2023-03-29T02:49:24.049Z,6.7
2023-03-29T02:51:27.149Z,6.7
2023-03-29T02:53:30.244Z,6.7
2023-03-29T02:57:36.425Z,6.6
2023-03-29T03:05:52.038Z,6.4
2023-03-29T03:12:01.378Z,6.4
2023-03-29T03:14:04.428Z,6.3
2023-03-29T03:16:07.600Z,6.4
2023-03-29T03:18:13.874Z,6.3
2023-03-29T03:20:16.925Z,6.2
2023-03-29T03:25:26.242Z,6.3
2023-03-29T03:27:29.357Z,6.1
2023-03-29T03:29:32.546Z,6.2
2023-03-29T03:35:44.934Z,6.2
2023-03-29T03:37:48.025Z,6.2
2023-03-29T03:39:51.108Z,6.2
2023-03-29T03:41:54.222Z,6.1
2023-03-29T03:43:57.298Z,6.1
2023-03-29T03:48:06.761Z,6.1
2023-03-29T03:58:22.192Z,6.1
2023-03-29T04:04:34.698Z,6.1
2023-03-29T04:06:37.799Z,6.1
2023-03-29T04:08:40.932Z,6.2
2023-03-29T04:10:43.963Z,6.3
2023-03-29T04:12:47.062Z,6.2
2023-03-29T04:14:53.399Z,6.3
2023-03-29T04:16:56.476Z,6.3
2023-03-29T04:18:59.638Z,6.2
2023-03-29T04:20:02.679Z,6.2
2023-03-29T04:22:05.776Z,6.2
2023-03-29T04:24:08.901Z,6.3
2023-03-29T04:28:18.275Z,6.4
2023-03-29T04:34:27.569Z,6.4
2023-03-29T04:38:33.736Z,6.5
2023-03-29T04:40:36.847Z,6.4
2023-03-29T04:44:46.268Z,6.5
2023-03-29T04:46:49.411Z,6.6
2023-03-29T04:48:52.403Z,6.5
2023-03-29T04:50:55.530Z,6.6
2023-03-29T04:52:58.610Z,6.6
2023-03-29T04:55:01.698Z,6.7
2023-03-29T04:57:08.026Z,6.7
2023-03-29T04:59:11.090Z,6.7
2023-03-29T05:01:14.221Z,6.8
2023-03-29T05:03:17.329Z,6.8
2023-03-29T05:05:20.404Z,6.7
2023-03-29T05:07:23.525Z,6.8
2023-03-29T05:11:32.922Z,6.7
2023-03-29T05:13:36.030Z,6.8
2023-03-29T05:16:42.463Z,6.9
2023-03-29T05:18:45.401Z,6.9
2023-03-29T05:20:48.538Z,6.9
2023-03-29T05:27:02.589Z,6.9
2023-03-29T05:33:12.027Z,6.9
2023-03-29T05:35:15.004Z,6.9
2023-03-29T05:37:18.127Z,6.9
2023-03-29T05:39:24.413Z,7
2023-03-29T05:45:33.788Z,7.1
2023-03-29T05:47:36.945Z,7
2023-03-29T05:49:39.955Z,7.1
2023-03-29T05:51:43.045Z,7.1
2023-03-29T06:02:01.840Z,7.3
2023-03-29T06:08:14.320Z,7.3
2023-03-29T06:10:17.440Z,7.3
2023-03-29T06:12:20.532Z,7.4
2023-03-29T06:14:44.659Z,7.3
2023-03-29T06:20:57.198Z,7.3
2023-03-29T06:23:00.300Z,7.5
2023-03-29T06:25:03.424Z,7.5
2023-03-29T06:27:06.526Z,7.5
2023-03-29T06:29:09.634Z,7.5
2023-03-29T06:31:12.804Z,7.5
2023-03-29T06:33:16.075Z,7.6
2023-03-29T06:35:22.186Z,7.6
2023-03-29T06:37:25.293Z,7.6
2023-03-29T06:39:28.399Z,7.6
2023-03-29T06:41:31.552Z,7.7
2023-03-29T06:43:34.662Z,7.7
2023-03-29T06:45:37.814Z,7.8
2023-03-29T06:49:47.210Z,7.8
2023-03-29T07:04:12.226Z,8.2
2023-03-29T07:06:15.305Z,8.3
2023-03-29T07:08:18.397Z,8.3
2023-03-29T07:09:21.579Z,8.2
2023-03-29T07:11:24.685Z,8.3
2023-03-29T07:13:27.806Z,8.5
2023-03-29T07:15:30.942Z,8.6
2023-03-29T07:17:37.285Z,8.7
2023-03-29T07:19:40.377Z,8.8
2023-03-29T07:21:43.475Z,8.7
2023-03-29T07:23:46.645Z,8.9
2023-03-29T07:25:49.740Z,9
2023-03-29T07:27:52.888Z,9
2023-03-29T07:29:55.951Z,9
2023-03-29T07:38:11.648Z,9.2
2023-03-29T07:40:14.797Z,9.3
2023-03-29T07:42:17.920Z,9.4
2023-03-29T07:44:21.033Z,9.6
2023-03-29T07:46:27.429Z,9.9
2023-03-29T07:54:39.823Z,9.9
2023-03-29T08:00:52.494Z,12.7
2023-03-29T08:06:01.920Z,11.6
2023-03-29T08:08:05.062Z,11.2
2023-03-29T08:10:08.193Z,10.9
2023-03-29T08:12:11.325Z,11
2023-03-29T08:14:17.696Z,11
2023-03-29T08:16:20.839Z,10.9
2023-03-29T08:18:24.012Z,11
2023-03-29T08:20:27.118Z,10.8
2023-03-29T08:22:30.249Z,10.7
2023-03-29T08:30:45.708Z,11.1
2023-03-29T08:32:51.540Z,11
2023-03-29T08:34:51.734Z,11
2023-03-29T08:36:54.800Z,10.9
2023-03-29T09:04:43.712Z,11.2
2023-03-29T09:06:46.746Z,11.2
2023-03-29T09:08:49.833Z,11.1
2023-03-29T09:10:55.982Z,11.3
2023-03-29T09:12:59.056Z,11.2
2023-03-29T09:15:02.093Z,11.2
2023-03-29T09:17:05.143Z,11.3
2023-03-29T09:19:08.196Z,11.2
2023-03-29T09:21:11.216Z,11.3
2023-03-29T09:25:20.446Z,11.4
2023-03-29T09:27:23.477Z,11.3
2023-03-29T09:29:26.530Z,11.4
2023-03-29T09:37:38.713Z,11.6
2023-03-29T09:45:54.083Z,11.6
2023-03-29T09:50:00.201Z,11.5
2023-03-29T09:52:03.188Z,11.8
2023-03-29T09:54:09.349Z,11.5
2023-03-29T09:56:12.422Z,11.5
2023-03-29T09:58:15.461Z,11.6
2023-03-29T10:04:51.049Z,12.4
2023-03-29T10:13:06.352Z,12.9
2023-03-29T10:19:15.482Z,13.1
2023-03-29T10:21:21.623Z,13.4
2023-03-29T10:23:24.684Z,13.4
2023-03-29T10:25:27.726Z,13.3
2023-03-29T10:29:33.823Z,12.7
2023-03-29T10:35:46.168Z,13.1
2023-03-29T10:37:49.143Z,13.1
2023-03-29T10:39:52.192Z,13.2
2023-03-29T10:46:01.414Z,13.6
2023-03-29T10:48:04.682Z,13.8
2023-03-29T10:50:10.577Z,13.9
2023-03-29T10:52:13.609Z,13.8
2023-03-29T10:54:16.655Z,13.4
2023-03-29T11:07:41.055Z,13
2023-03-29T11:09:44.129Z,13.2
2023-03-29T11:11:47.183Z,13.3
2023-03-29T11:13:50.237Z,13.7
2023-03-29T11:15:53.272Z,13.8
2023-03-29T11:18:01.050Z,13.4
2023-03-29T11:20:05.184Z,13.4
2023-03-29T11:24:10.037Z,13.4
2023-03-29T11:32:25.386Z,13.6
2023-03-29T11:44:43.932Z,13.9
2023-03-29T11:51:58.838Z,14.2
2023-03-29T11:54:01.897Z,14.3
2023-03-29T11:56:04.928Z,14.4
2023-03-29T11:58:07.997Z,14.2
2023-03-29T12:00:14.150Z,13.9
2023-03-29T12:02:17.221Z,13.9
2023-03-29T12:04:20.319Z,14
2023-03-29T12:06:23.273Z,14.1
2023-03-29T12:08:26.318Z,14
2023-03-29T12:10:29.341Z,14
2023-03-29T12:12:32.406Z,14
2023-03-29T12:14:38.536Z,13.8
2023-03-29T12:16:41.686Z,13.9
2023-03-29T12:20:47.684Z,13.5
2023-03-29T12:22:50.825Z,13.3
2023-03-29T12:24:53.793Z,13.3
2023-03-29T12:26:56.864Z,12.8
2023-03-29T12:29:03.001Z,12.8
2023-03-29T12:37:15.200Z,13
2023-03-29T12:48:36.650Z,13.3
2023-03-29T12:50:39.711Z,13.5
2023-03-29T12:52:42.777Z,13.6
2023-03-29T12:54:45.809Z,13
2023-03-29T12:56:52.026Z,12.9
2023-03-29T13:00:58.097Z,13
2023-03-29T13:03:01.198Z,13.1
2023-03-29T13:05:04.164Z,13.1
2023-03-29T13:07:07.355Z,13
2023-03-29T13:09:10.282Z,13
2023-03-29T13:11:16.434Z,13.1
2023-03-29T13:13:19.492Z,13.1
2023-03-29T13:15:22.543Z,13.2
2023-03-29T13:17:25.699Z,13.2
2023-03-29T13:25:40.886Z,12.9
2023-03-29T13:37:59.151Z,12.8
2023-03-29T13:40:05.331Z,12.9
2023-03-29T13:42:08.384Z,13
2023-03-29T13:44:11.419Z,13.2
2023-03-29T13:46:41.051Z,12.9
2023-03-29T14:03:08.426Z,13.3
2023-03-29T14:05:11.421Z,13.2
2023-03-29T14:13:26.728Z,14.3
2023-03-29T14:17:32.885Z,14.3
2023-03-29T14:19:35.868Z,14.1
2023-03-29T14:41:15.679Z,13.5
2023-03-29T14:43:18.710Z,13.7
2023-03-29T14:47:24.842Z,13.8
2023-03-29T14:53:37.081Z,13.6
2023-03-29T14:55:40.125Z,13.7
2023-03-29T15:01:49.307Z,13.5
2023-03-29T15:12:07.626Z,13.7
2023-03-29T15:18:19.914Z,13.9
2023-03-29T15:22:25.976Z,13.8
2023-03-29T15:26:32.064Z,13.9
2023-03-29T15:28:35.124Z,13.9
2023-03-29T15:30:38.191Z,14
2023-03-29T15:32:44.416Z,13.8
2023-03-29T15:34:47.404Z,13.9
2023-03-29T15:36:50.485Z,13.8
2023-03-29T15:37:53.514Z,13.8
2023-03-29T15:39:56.572Z,13.7
2023-03-29T15:41:59.613Z,13.8
2023-03-29T15:48:11.894Z,13.6
2023-03-29T15:50:14.928Z,13.7
2023-03-29T15:52:17.958Z,13.8
2023-03-29T15:54:20.990Z,13.8
2023-03-29T15:58:27.106Z,13.8
2023-03-29T16:02:36.403Z,13.7
2023-03-29T16:06:42.411Z,13.6
2023-03-29T16:14:57.685Z,13.7
2023-03-29T16:34:31.405Z,13.7
2023-03-29T16:36:34.357Z,13.7
2023-03-29T16:38:37.411Z,13.8
2023-03-29T16:40:40.456Z,13.7
2023-03-29T16:42:46.613Z,13.8
2023-03-29T16:44:49.726Z,13.9
2023-03-29T16:46:52.712Z,13.8
2023-03-29T16:48:55.731Z,13.9
2023-03-29T16:50:58.796Z,13.9
2023-03-29T16:53:01.858Z,13.9
2023-03-29T16:55:04.944Z,13.9
2023-03-29T16:57:11.088Z,13.9
2023-03-29T16:59:14.112Z,13.9
2023-03-29T17:01:17.195Z,13.8
2023-03-29T17:03:20.240Z,13.9
2023-03-29T17:05:23.281Z,13.9
2023-03-29T17:07:26.347Z,13.8
2023-03-29T17:15:43.199Z,13.9
2023-03-29T17:17:46.272Z,14
2023-03-29T17:19:49.264Z,13.9
2023-03-29T17:21:52.338Z,14
2023-03-29T17:23:55.391Z,13.8
2023-03-29T17:26:01.865Z,13.9
2023-03-29T17:30:07.654Z,13.8
2023-03-29T17:32:37.123Z,13.8
2023-03-29T17:34:40.154Z,13.8
2023-03-29T17:42:55.432Z,13.7
2023-03-29T17:47:01.654Z,13.7
2023-03-29T17:53:13.794Z,13.7
2023-03-29T17:55:16.857Z,13.8
2023-03-29T17:57:19.964Z,13.6
2023-03-29T17:59:22.967Z,13.6
2023-03-29T18:01:26.137Z,13.7
2023-03-29T18:03:29.130Z,13.6
2023-03-29T18:05:32.114Z,13.6
2023-03-29T18:07:38.262Z,13.6
2023-03-29T18:09:41.330Z,13.5
2023-03-29T18:11:44.370Z,13.5
2023-03-29T18:15:50.525Z,13.5
2023-03-29T18:17:53.546Z,13.6
2023-03-29T18:19:56.577Z,13.6
2023-03-29T18:22:02.747Z,13.4
2023-03-29T18:24:05.809Z,13.6
2023-03-29T18:26:08.835Z,13.5
2023-03-29T18:27:11.919Z,13.6
2023-03-29T18:29:14.983Z,13.4
2023-03-29T18:31:18.015Z,13.5
2023-03-29T18:35:27.235Z,13.3
2023-03-29T18:37:30.274Z,13.4
2023-03-29T18:39:33.324Z,13.3
2023-03-29T18:41:36.339Z,13.4
2023-03-29T18:43:39.361Z,13.3
2023-03-29T18:45:42.436Z,13.3
2023-03-29T18:49:51.602Z,13.3
2023-03-29T19:10:25.185Z,12.9
2023-03-29T19:12:28.237Z,12.9
2023-03-29T19:14:31.275Z,12.9
2023-03-29T19:25:52.693Z,12.7
2023-03-29T19:27:55.756Z,12.7
2023-03-29T19:29:58.802Z,12.7
2023-03-29T19:38:14.258Z,12.6
2023-03-29T19:40:17.125Z,12.5
2023-03-29T19:46:29.485Z,12.5
2023-03-29T19:50:35.514Z,12.4
2023-03-29T19:54:41.603Z,12.3
2023-03-29T19:56:44.691Z,12.3
2023-03-29T19:58:47.697Z,12.4
2023-03-29T20:00:53.873Z,12.3
2023-03-29T20:05:00.028Z,12.3
2023-03-29T20:15:18.350Z,12.2
2023-03-29T20:17:21.390Z,12.2
2023-03-29T20:19:24.438Z,12.2
2023-03-29T20:20:27.556Z,12.3
2023-03-29T20:22:30.580Z,12.1
2023-03-29T20:24:33.612Z,12.2
2023-03-29T20:26:36.664Z,12.3
2023-03-29T20:28:42.870Z,12.2
2023-03-29T20:30:45.869Z,12.1
2023-03-29T20:32:49.003Z,12.1
2023-03-29T20:34:51.993Z,12.1
2023-03-29T20:36:55.193Z,12.2
2023-03-29T20:41:01.282Z,12.1
2023-03-29T20:43:07.262Z,12.1
2023-03-29T20:45:10.330Z,12
2023-03-29T20:47:13.372Z,12
2023-03-29T20:51:19.460Z,12.1
2023-03-29T20:53:22.504Z,12
2023-03-29T20:59:34.779Z,12.1
2023-03-29T21:01:37.836Z,12.1
2023-03-29T21:05:43.920Z,12
2023-03-29T21:07:46.971Z,12
2023-03-29T21:09:50.108Z,12.2
2023-03-29T21:11:56.174Z,12.1
2023-03-29T21:13:59.228Z,12.2
2023-03-29T21:16:02.349Z,12.1
2023-03-29T21:20:29.335Z,12.1
2023-03-29T21:24:38.531Z,12.2
2023-03-29T21:36:56.864Z,12.2
2023-03-29T21:41:06.249Z,12.2
2023-03-29T21:43:09.111Z,12.2
2023-03-29T21:47:15.186Z,12.2
2023-03-29T21:53:27.648Z,12.2
2023-03-29T21:55:30.532Z,12.2
2023-03-29T21:57:33.594Z,12.2
2023-03-29T21:59:36.657Z,12.1
2023-03-29T22:01:39.760Z,12.1
2023-03-29T22:03:42.736Z,12
2023-03-29T22:05:45.788Z,12.1
2023-03-29T22:07:51.961Z,12
2023-03-29T22:15:04.194Z,12.1
2023-03-29T22:17:07.240Z,12.3
2023-03-29T22:19:10.305Z,12.5
2023-03-29T22:27:26.507Z,12.9
2023-03-29T22:33:35.640Z,13.1
2023-03-29T22:35:41.830Z,13.3
2023-03-29T22:37:44.848Z,13.5
2023-03-29T22:39:47.913Z,13.5
2023-03-29T22:41:50.948Z,13.7
2023-03-29T22:45:57.060Z,13.6
2023-03-29T22:48:00.186Z,13.6
2023-03-29T22:52:09.295Z,13.6
2023-03-29T23:09:41.421Z,13.8
2023-03-29T23:11:44.484Z,13.7
2023-03-29T23:13:47.518Z,13.7
2023-03-29T23:15:50.572Z,13.8
2023-03-29T23:17:56.731Z,13.8
2023-03-29T23:19:59.767Z,13.7
2023-03-29T23:30:15.004Z,13.7
2023-03-29T23:32:21.151Z,13.7
2023-03-29T23:34:24.224Z,13.8
2023-03-29T23:36:27.274Z,13.8
2023-03-29T23:38:30.322Z,13.9
2023-03-29T23:44:39.461Z,13.8
2023-03-29T23:50:51.715Z,13.9
2023-03-29T23:52:54.774Z,14
2023-03-29T23:54:57.799Z,14.1
2023-03-29T23:57:00.886Z,14
2023-03-29T23:59:03.908Z,13.9
